Time;durP1;ratioP1;P1;durP2;ratioP2;P2;SDS_P1;SDS_P2;PMS_P1;PMS_P2;Temp;Humidity;BMP_temperature;BMP_pressure;BME280_temperature;BME280_humidity;BME280_pressure;Samples;Min_cycle;Max_cycle;Signal;HPM_P1;HPM_P2
2023/05/26 00:01:59;;;;;;;8.23;6.70;;;12.00;95.30;;;;;;5011436;28;20503;-71
2023/05/26 00:04:27;;;;;;;9.20;5.77;;;12.10;95.00;;;;;;5011073;28;20788;-70
2023/05/26 00:06:55;;;;;;;8.30;6.20;;;12.30;94.30;;;;;;5011627;28;20453;-72
2023/05/26 00:09:23;;;;;;;8.60;6.43;;;12.40;93.80;;;;;;5011215;28;20524;-72
2023/05/26 00:11:52;;;;;;;6.97;5.97;;;12.40;94.20;;;;;;5010376;28;20449;-73
2023/05/26 00:14:21;;;;;;;7.10;6.27;;;12.40;95.10;;;;;;5011197;28;20507;-72
2023/05/26 00:16:49;;;;;;;6.77;6.07;;;12.40;95.70;;;;;;5010860;28;20472;-72
2023/05/26 00:19:19;;;;;;;8.40;6.47;;;12.50;93.80;;;;;;5010905;28;20838;-73
2023/05/26 00:21:47;;;;;;;7.33;6.00;;;12.50;93.80;;;;;;5010744;28;20448;-72
2023/05/26 00:24:15;;;;;;;6.33;5.17;;;12.50;93.60;;;;;;5010581;28;20448;-72
2023/05/26 00:26:43;;;;;;;8.90;6.00;;;12.40;94.70;;;;;;5010688;28;20448;-72
2023/05/26 00:29:11;;;;;;;6.47;5.80;;;12.40;95.80;;;;;;5010525;28;20566;-71
2023/05/26 00:31:57;;;;;;;8.33;6.73;;;12.30;95.80;;;;;;5010884;28;20449;-71
2023/05/26 00:34:25;;;;;;;7.60;6.03;;;12.20;95.00;;;;;;5010604;28;20557;-71
2023/05/26 00:36:53;;;;;;;6.80;6.10;;;12.10;95.30;;;;;;5011260;28;20459;-71
2023/05/26 00:39:21;;;;;;;7.73;6.17;;;12.10;97.00;;;;;;5013566;28;20446;-72
2023/05/26 00:41:49;;;;;;;7.97;6.73;;;12.10;97.60;;;;;;5014356;28;20967;-72
2023/05/26 00:44:17;;;;;;;9.20;6.30;;;12.10;97.30;;;;;;5012151;28;20446;-72
2023/05/26 00:46:45;;;;;;;7.77;6.70;;;11.90;95.60;;;;;;5010783;28;20496;-71
2023/05/26 00:49:15;;;;;;;7.10;6.40;;;12.10;95.00;;;;;;5010555;28;20906;-71
2023/05/26 00:51:45;;;;;;;7.07;6.37;;;12.20;95.10;;;;;;5010362;28;20507;-72
2023/05/26 00:54:14;;;;;;;7.20;6.60;;;12.20;94.50;;;;;;5010226;28;20449;-72
2023/05/26 00:56:42;;;;;;;7.97;6.93;;;12.20;95.90;;;;;;5009854;28;20967;-72
2023/05/26 00:59:12;;;;;;;6.90;6.30;;;12.20;98.10;;;;;;5010181;28;20497;-71
2023/05/26 01:01:40;;;;;;;10.93;6.43;;;12.20;97.80;;;;;;5010256;28;20481;-72
2023/05/26 01:04:08;;;;;;;8.97;6.80;;;12.20;98.60;;;;;;5009780;28;20453;-71
2023/05/26 01:06:38;;;;;;;12.43;8.60;;;12.10;98.60;;;;;;5010150;28;20504;-71
2023/05/26 01:09:06;;;;;;;8.93;8.03;;;12.10;99.20;;;;;;5009794;28;20478;-72
2023/05/26 01:11:41;;;;;;;8.77;7.87;;;12.20;99.60;;;;;;5010622;28;20473;-72
2023/05/26 01:14:15;;;;;;;9.00;8.10;;;12.10;99.90;;;;;;5009820;28;20488;-72
2023/05/26 01:16:51;;;;;;;9.57;7.70;;;12.20;99.60;;;;;;5010286;28;20445;-71
2023/05/26 01:19:52;;;;;;;8.80;7.90;;;12.10;99.80;;;;;;5010075;28;20465;-72
2023/05/26 01:22:37;;;;;;;8.90;6.30;;;12.20;99.90;;;;;;5011977;28;20444;-72
2023/05/26 01:25:18;;;;;;;9.40;7.10;;;12.20;96.90;;;;;;5014046;28;20445;-72
2023/05/26 01:27:57;;;;;;;7.70;6.23;;;12.30;96.60;;;;;;5013635;28;20581;-72
2023/05/26 01:30:25;;;;;;;9.83;7.40;;;12.40;95.60;;;;;;5013979;28;20476;-72
2023/05/26 01:32:53;;;;;;;12.67;7.00;;;12.50;95.30;;;;;;5013454;28;20445;-71
2023/05/26 01:35:21;;;;;;;8.73;7.20;;;12.70;97.20;;;;;;5013760;28;20495;-71
2023/05/26 01:37:49;;;;;;;9.37;7.27;;;12.80;97.80;;;;;;5013493;28;20564;-72
2023/05/26 01:40:17;;;;;;;10.07;7.20;;;12.90;98.20;;;;;;5013528;28;20441;-72
2023/05/26 01:42:57;;;;;;;9.03;7.23;;;13.00;97.50;;;;;;5013424;28;20449;-72
2023/05/26 01:45:28;;;;;;;7.87;7.07;;;13.00;98.10;;;;;;5013552;28;20934;-72
2023/05/26 01:48:02;;;;;;;8.33;7.40;;;13.00;98.30;;;;;;5013579;28;20545;-72
2023/05/26 01:50:33;;;;;;;7.87;6.80;;;13.00;97.60;;;;;;5013434;28;21002;-72
2023/05/26 01:53:05;;;;;;;7.90;7.10;;;13.00;98.30;;;;;;5013631;28;20823;-72
2023/05/26 01:55:35;;;;;;;9.23;7.20;;;13.10;98.20;;;;;;5013449;28;20975;-72
2023/05/26 01:58:04;;;;;;;9.93;8.90;;;13.10;98.60;;;;;;5013932;28;20508;-72
2023/05/26 02:00:33;;;;;;;9.40;7.23;;;13.10;98.50;;;;;;5013774;28;20445;-72
2023/05/26 02:03:01;;;;;;;11.30;8.43;;;13.10;98.90;;;;;;5012273;28;20518;-72
2023/05/26 02:05:30;;;;;;;9.90;8.03;;;13.10;98.40;;;;;;5013418;28;20445;-72
2023/05/26 02:07:58;;;;;;;8.97;8.00;;;13.10;98.00;;;;;;5013557;28;21126;-72
2023/05/26 02:10:26;;;;;;;11.37;7.57;;;13.00;98.60;;;;;;5013687;28;20523;-72
2023/05/26 02:12:53;;;;;;;10.03;7.80;;;13.00;99.20;;;;;;5013597;28;20534;-72
2023/05/26 02:15:21;;;;;;;7.70;6.87;;;13.00;98.90;;;;;;5013541;28;20440;-72
2023/05/26 02:17:53;;;;;;;12.57;7.60;;;13.00;97.80;;;;;;5013195;28;20465;-72
2023/05/26 02:20:21;;;;;;;7.87;6.37;;;12.90;96.40;;;;;;5013498;28;20801;-72
2023/05/26 02:22:50;;;;;;;11.67;7.57;;;12.90;93.50;;;;;;5013625;28;20645;-71
2023/05/26 02:25:18;;;;;;;7.50;6.67;;;13.00;92.60;;;;;;5013382;28;20521;-71
2023/05/26 02:27:46;;;;;;;8.10;5.97;;;13.10;92.00;;;;;;5013250;28;20505;-71
2023/05/26 02:30:14;;;;;;;7.43;5.37;;;13.20;91.50;;;;;;5012823;28;20491;-72
2023/05/26 02:32:42;;;;;;;7.20;6.27;;;13.20;91.10;;;;;;5012371;28;20449;-71
2023/05/26 02:35:12;;;;;;;11.50;7.40;;;13.20;91.30;;;;;;5012614;28;20450;-71
2023/05/26 02:37:41;;;;;;;9.07;6.43;;;13.20;91.30;;;;;;5012641;28;20516;-71
2023/05/26 02:40:10;;;;;;;8.10;6.70;;;13.10;91.60;;;;;;5012754;28;20480;-71
2023/05/26 02:42:38;;;;;;;6.60;5.63;;;13.00;91.70;;;;;;5012082;28;20452;-71
2023/05/26 02:45:07;;;;;;;9.00;7.03;;;13.00;92.00;;;;;;5012461;28;20537;-71
2023/05/26 02:47:37;;;;;;;8.47;6.70;;;12.90;92.40;;;;;;5012358;28;20461;-71
2023/05/26 02:50:06;;;;;;;12.37;7.03;;;12.80;92.60;;;;;;5012715;28;20489;-71
2023/05/26 02:52:35;;;;;;;7.57;6.20;;;12.80;92.70;;;;;;5012282;28;21010;-71
2023/05/26 02:55:04;;;;;;;9.80;6.77;;;12.80;93.00;;;;;;5012275;28;20445;-71
2023/05/26 02:57:32;;;;;;;8.07;6.70;;;12.70;93.30;;;;;;5012072;28;20883;-71
2023/05/26 03:00:00;;;;;;;9.57;6.50;;;12.60;93.50;;;;;;5012010;28;20862;-71
2023/05/26 03:02:28;;;;;;;9.80;6.90;;;12.60;93.70;;;;;;5011767;28;20449;-72
2023/05/26 03:04:56;;;;;;;9.73;7.40;;;12.40;94.20;;;;;;5012062;28;20625;-72
2023/05/26 03:07:24;;;;;;;8.63;7.73;;;12.30;94.90;;;;;;5011949;28;21002;-72
2023/05/26 03:09:53;;;;;;;7.63;6.30;;;12.20;96.90;;;;;;5011824;28;20531;-72
2023/05/26 03:12:21;;;;;;;7.53;6.83;;;12.10;98.00;;;;;;5011633;28;20507;-72
2023/05/26 03:14:50;;;;;;;9.20;7.23;;;12.00;98.50;;;;;;5011844;28;20470;-72
2023/05/26 03:17:18;;;;;;;10.70;8.03;;;11.80;97.00;;;;;;5011348;28;20474;-72
2023/05/26 03:19:46;;;;;;;9.23;8.27;;;11.80;98.50;;;;;;5011552;28;20507;-72
2023/05/26 03:22:14;;;;;;;9.10;8.17;;;11.70;98.40;;;;;;5011619;28;20533;-72
2023/05/26 03:25:04;;;;;;;9.73;7.50;;;11.60;98.60;;;;;;5011457;28;20458;-71
2023/05/26 03:27:32;;;;;;;8.87;7.40;;;11.50;99.20;;;;;;5011443;28;20457;-72
2023/05/26 03:30:00;;;;;;;8.70;7.40;;;11.50;98.60;;;;;;5011249;28;20583;-72
2023/05/26 03:32:28;;;;;;;10.47;8.13;;;11.40;99.50;;;;;;5011420;28;20460;-72
2023/05/26 03:34:56;;;;;;;12.87;8.93;;;11.40;99.60;;;;;;5011288;28;20473;-71
2023/05/26 03:37:24;;;;;;;13.23;7.70;;;11.40;99.90;;;;;;5011405;28;20507;-71
2023/05/26 03:39:52;;;;;;;9.67;8.23;;;11.40;99.90;;;;;;5011566;28;20494;-71
2023/05/26 03:42:22;;;;;;;10.20;8.10;;;11.50;99.90;;;;;;5011157;28;20449;-71
2023/05/26 03:44:50;;;;;;;11.33;8.17;;;11.50;99.90;;;;;;5011143;28;20436;-71
2023/05/26 03:47:18;;;;;;;12.77;9.10;;;11.50;99.90;;;;;;5010863;28;21003;-71
2023/05/26 03:49:46;;;;;;;9.97;8.53;;;11.40;99.90;;;;;;5011620;28;21138;-71
2023/05/26 03:52:14;;;;;;;9.90;7.90;;;11.40;99.90;;;;;;5011375;28;20991;-71
2023/05/26 03:54:42;;;;;;;10.20;8.40;;;11.40;99.90;;;;;;5011028;28;20445;-71
2023/05/26 03:57:10;;;;;;;11.03;8.93;;;11.40;99.90;;;;;;5011228;28;20455;-72
2023/05/26 03:59:39;;;;;;;10.43;8.03;;;11.60;98.10;;;;;;5011099;28;20467;-72
2023/05/26 04:02:07;;;;;;;13.90;8.60;;;11.60;99.00;;;;;;5010868;28;20445;-72
2023/05/26 04:04:36;;;;;;;11.50;8.30;;;11.70;99.90;;;;;;5010626;28;20882;-72
2023/05/26 04:07:04;;;;;;;9.20;8.30;;;11.70;99.90;;;;;;5010798;28;20468;-71
2023/05/26 04:09:32;;;;;;;11.63;7.80;;;11.80;99.90;;;;;;5010771;28;20453;-72
2023/05/26 04:12:01;;;;;;;9.20;8.30;;;12.00;99.90;;;;;;5010723;28;20571;-72
2023/05/26 04:14:29;;;;;;;8.93;8.03;;;12.00;99.90;;;;;;5010078;28;20537;-71
2023/05/26 04:16:59;;;;;;;9.87;7.93;;;12.00;99.90;;;;;;5010370;28;20441;-72
2023/05/26 04:19:27;;;;;;;9.73;7.80;;;12.10;99.90;;;;;;5011100;28;20529;-70
2023/05/26 04:21:55;;;;;;;9.60;7.70;;;12.30;99.90;;;;;;5010674;28;20444;-71
2023/05/26 04:24:23;;;;;;;9.20;8.13;;;12.40;99.80;;;;;;5010395;28;20464;-71
2023/05/26 04:26:52;;;;;;;12.43;9.10;;;12.50;99.90;;;;;;5010452;28;20449;-70
2023/05/26 04:29:21;;;;;;;9.47;8.53;;;12.60;99.90;;;;;;5010350;28;20462;-71
2023/05/26 04:31:48;;;;;;;9.00;8.10;;;12.60;99.90;;;;;;5007318;28;21024;-72
2023/05/26 04:34:23;;;;;;;9.07;8.23;;;12.70;99.90;;;;;;5013597;28;20444;-70
2023/05/26 04:36:52;;;;;;;8.87;7.97;;;12.80;99.90;;;;;;5025218;28;20461;-72
2023/05/26 04:39:20;;;;;;;10.30;9.13;;;12.90;99.90;;;;;;5010087;28;20466;-73
2023/05/26 04:41:48;;;;;;;10.50;8.57;;;13.00;99.80;;;;;;5010083;28;20856;-74
2023/05/26 04:44:18;;;;;;;10.63;8.10;;;13.10;99.70;;;;;;5010004;28;20441;-75
2023/05/26 04:46:46;;;;;;;10.87;8.70;;;13.20;99.40;;;;;;5010054;28;20991;-75
2023/05/26 04:49:16;;;;;;;10.30;7.87;;;13.30;98.80;;;;;;5010133;28;20486;-70
2023/05/26 04:51:45;;;;;;;10.50;8.90;;;13.50;98.40;;;;;;5009613;28;20482;-70
2023/05/26 04:54:13;;;;;;;11.13;8.20;;;13.70;98.10;;;;;;5009734;28;20445;-71
2023/05/26 04:56:41;;;;;;;15.07;9.20;;;13.90;96.90;;;;;;5009424;28;20446;-72
2023/05/26 04:59:09;;;;;;;11.20;8.23;;;14.00;95.90;;;;;;5009748;28;20484;-72
2023/05/26 05:01:37;;;;;;;9.83;8.63;;;14.00;96.00;;;;;;5010003;28;20444;-71
2023/05/26 05:04:06;;;;;;;12.63;8.37;;;14.10;95.60;;;;;;5009533;28;20549;-71
2023/05/26 05:06:35;;;;;;;9.90;8.20;;;14.10;95.80;;;;;;5005749;28;20451;-72
2023/05/26 05:09:05;;;;;;;12.43;9.00;;;14.00;95.40;;;;;;5000489;28;20477;-72
2023/05/26 05:11:33;;;;;;;12.70;9.73;;;14.00;95.20;;;;;;5004774;28;21030;-71
2023/05/26 05:14:01;;;;;;;11.60;8.23;;;13.90;96.00;;;;;;5008302;28;20448;-72
2023/05/26 05:16:28;;;;;;;10.97;8.83;;;13.70;94.40;;;;;;5009442;28;20533;-73
2023/05/26 05:18:57;;;;;;;14.07;9.37;;;13.60;93.70;;;;;;5009930;28;20474;-72
2023/05/26 05:21:25;;;;;;;13.60;8.70;;;13.60;94.40;;;;;;5010255;28;20450;-73
2023/05/26 05:23:53;;;;;;;12.00;8.47;;;13.70;92.50;;;;;;5011539;28;20452;-72
2023/05/26 05:26:22;;;;;;;16.97;9.43;;;13.80;91.90;;;;;;5009870;28;20449;-72
2023/05/26 05:28:50;;;;;;;12.70;9.00;;;13.90;91.70;;;;;;5010709;28;20465;-73
2023/05/26 05:31:18;;;;;;;9.10;8.07;;;13.90;91.20;;;;;;5010772;28;20493;-72
2023/05/26 05:33:46;;;;;;;12.60;9.67;;;13.90;90.80;;;;;;5010588;28;20465;-72
2023/05/26 05:36:14;;;;;;;8.83;7.83;;;13.90;90.70;;;;;;5010102;28;20511;-72
2023/05/26 05:38:42;;;;;;;11.23;8.63;;;14.00;89.60;;;;;;5009734;28;20457;-72
2023/05/26 05:41:10;;;;;;;12.33;8.77;;;14.10;88.80;;;;;;5010030;28;20941;-71
2023/05/26 05:43:40;;;;;;;10.80;7.90;;;14.10;89.70;;;;;;5009393;28;20446;-72
2023/05/26 05:46:08;;;;;;;10.63;8.70;;;14.10;89.30;;;;;;5009703;28;20469;-71
2023/05/26 05:48:36;;;;;;;13.87;9.50;;;14.10;90.50;;;;;;5009801;28;21053;-72
2023/05/26 05:51:04;;;;;;;15.00;10.63;;;14.20;90.00;;;;;;5009756;28;20940;-70
2023/05/26 05:53:32;;;;;;;11.30;9.20;;;14.20;87.40;;;;;;5009482;28;20553;-72
2023/05/26 05:56:00;;;;;;;13.50;9.60;;;14.30;88.70;;;;;;5009608;28;20545;-72
2023/05/26 05:58:31;;;;;;;9.87;8.70;;;14.40;88.80;;;;;;5009718;28;20512;-72
2023/05/26 06:01:00;;;;;;;11.80;8.70;;;14.50;88.60;;;;;;5009442;28;20549;-72
2023/05/26 06:03:28;;;;;;;9.80;8.67;;;14.60;87.20;;;;;;5009374;28;20794;-73
2023/05/26 06:05:56;;;;;;;11.90;9.47;;;14.50;87.20;;;;;;5009729;28;20864;-73
2023/05/26 06:08:24;;;;;;;12.20;9.13;;;14.60;87.10;;;;;;5009740;28;20536;-72
2023/05/26 06:10:52;;;;;;;12.77;10.00;;;14.60;87.60;;;;;;5013391;28;20502;-73
2023/05/26 06:13:20;;;;;;;15.27;10.23;;;14.60;87.00;;;;;;5012624;28;20622;-73
2023/05/26 06:15:48;;;;;;;11.23;9.40;;;14.60;88.80;;;;;;5013333;28;20445;-72
2023/05/26 06:18:18;;;;;;;15.07;10.20;;;14.70;87.40;;;;;;5013045;28;20535;-72
2023/05/26 06:20:46;;;;;;;20.43;10.80;;;14.70;87.80;;;;;;5012953;28;20438;-72
2023/05/26 06:23:14;;;;;;;14.40;10.60;;;14.70;87.80;;;;;;5012634;28;20484;-72
2023/05/26 06:25:42;;;;;;;13.53;9.73;;;14.70;87.50;;;;;;5012884;28;20580;-72
2023/05/26 06:28:10;;;;;;;13.73;9.10;;;14.80;89.30;;;;;;5012580;28;20462;-72
2023/05/26 06:30:38;;;;;;;12.60;8.90;;;15.00;86.00;;;;;;5012645;28;21047;-72
2023/05/26 06:33:07;;;;;;;12.73;8.50;;;15.10;86.40;;;;;;5012558;28;20481;-71
2023/05/26 06:35:36;;;;;;;13.90;10.77;;;15.10;84.60;;;;;;5012605;28;20451;-73
2023/05/26 06:38:04;;;;;;;17.30;10.67;;;15.20;84.60;;;;;;5012724;28;20504;-72
2023/05/26 06:40:32;;;;;;;10.57;9.00;;;15.30;84.30;;;;;;5012299;28;20504;-72
2023/05/26 06:43:00;;;;;;;12.50;7.80;;;15.30;82.50;;;;;;5012403;28;20444;-72
2023/05/26 06:45:28;;;;;;;11.70;9.00;;;15.30;84.30;;;;;;5012642;28;21072;-72
2023/05/26 06:47:56;;;;;;;12.53;8.97;;;15.40;83.70;;;;;;5012489;28;20500;-72
2023/05/26 06:50:25;;;;;;;14.87;9.03;;;15.50;83.00;;;;;;5012498;28;20819;-71
2023/05/26 06:52:54;;;;;;;12.27;9.30;;;15.40;79.80;;;;;;5011835;28;20480;-72
2023/05/26 06:55:22;;;;;;;10.10;7.83;;;15.50;81.80;;;;;;5012617;28;20500;-72
2023/05/26 06:57:50;;;;;;;11.93;8.77;;;15.60;81.50;;;;;;5012269;28;20880;-72
2023/05/26 07:00:19;;;;;;;11.10;8.63;;;15.60;80.60;;;;;;5012345;28;20439;-72
2023/05/26 07:02:47;;;;;;;13.57;8.83;;;15.70;81.10;;;;;;5011909;28;21008;-72
2023/05/26 07:05:15;;;;;;;13.70;9.37;;;15.80;79.40;;;;;;5011891;28;20946;-72
2023/05/26 07:07:43;;;;;;;10.50;8.57;;;15.80;76.90;;;;;;5011917;28;20476;-72
2023/05/26 07:10:12;;;;;;;13.30;8.17;;;15.80;77.90;;;;;;5012028;28;20470;-72
2023/05/26 07:12:41;;;;;;;13.30;9.70;;;15.90;78.40;;;;;;5011631;28;20606;-72
2023/05/26 07:15:12;;;;;;;9.30;8.40;;;16.10;79.60;;;;;;5011900;28;20547;-69
2023/05/26 07:17:40;;;;;;;11.10;8.57;;;16.20;76.80;;;;;;5011827;28;20499;-66
2023/05/26 07:20:09;;;;;;;14.20;8.90;;;16.30;78.90;;;;;;5011410;28;20856;-66
2023/05/26 07:22:37;;;;;;;12.23;10.00;;;16.20;77.90;;;;;;5011664;28;20448;-67
2023/05/26 07:25:06;;;;;;;9.53;8.33;;;16.40;78.30;;;;;;5011789;28;20438;-67
2023/05/26 07:27:35;;;;;;;10.77;9.30;;;16.40;76.70;;;;;;5011942;28;20473;-67
2023/05/26 07:30:03;;;;;;;9.83;8.73;;;16.50;76.10;;;;;;5011851;28;20448;-68
2023/05/26 07:32:31;;;;;;;11.17;8.57;;;16.70;74.30;;;;;;5011500;28;20487;-66
2023/05/26 07:34:59;;;;;;;12.60;8.57;;;16.60;75.00;;;;;;5011815;28;20450;-67
2023/05/26 07:37:27;;;;;;;11.40;9.30;;;16.70;75.60;;;;;;5011494;28;20531;-67
2023/05/26 07:39:55;;;;;;;11.37;8.50;;;16.80;76.00;;;;;;5011674;28;20533;-66
2023/05/26 07:42:23;;;;;;;12.40;9.47;;;16.80;75.90;;;;;;5011550;28;20492;-67
2023/05/26 07:44:54;;;;;;;12.80;10.40;;;16.80;73.50;;;;;;5011540;28;20872;-66
2023/05/26 07:47:23;;;;;;;10.80;9.30;;;16.80;75.30;;;;;;5011576;28;21055;-67
2023/05/26 07:49:51;;;;;;;12.43;8.93;;;16.90;74.90;;;;;;5011349;28;20450;-65
2023/05/26 07:52:19;;;;;;;14.13;10.10;;;17.00;75.00;;;;;;5011397;28;20923;-68
2023/05/26 07:54:47;;;;;;;9.80;7.97;;;17.20;74.90;;;;;;5011003;28;20512;-69
2023/05/26 07:57:15;;;;;;;12.00;9.63;;;17.30;74.80;;;;;;5011082;28;20512;-69
2023/05/26 07:59:58;;;;;;;11.33;8.77;;;17.30;74.80;;;;;;5011124;28;20441;-69
2023/05/26 08:02:26;;;;;;;10.90;9.80;;;17.30;74.00;;;;;;5010674;28;20476;-68
2023/05/26 08:04:54;;;;;;;11.57;9.07;;;17.40;73.60;;;;;;5011098;28;20446;-67
2023/05/26 08:07:22;;;;;;;13.10;9.50;;;17.40;71.90;;;;;;5010905;28;20527;-68
2023/05/26 08:09:52;;;;;;;12.90;9.33;;;17.50;73.30;;;;;;5010978;28;20496;-68
2023/05/26 08:12:20;;;;;;;12.10;9.17;;;17.50;72.90;;;;;;5010761;28;20450;-69
2023/05/26 08:14:49;;;;;;;13.83;9.90;;;17.50;74.20;;;;;;5010943;28;20496;-71
2023/05/26 08:17:18;;;;;;;13.50;9.90;;;17.60;72.60;;;;;;5010714;28;21029;-71
2023/05/26 08:19:46;;;;;;;11.60;9.47;;;17.80;72.00;;;;;;5010909;28;20822;-71
2023/05/26 08:22:14;;;;;;;12.77;9.00;;;17.90;70.80;;;;;;5010892;28;20497;-72
2023/05/26 08:24:42;;;;;;;11.60;8.00;;;18.00;71.10;;;;;;5010438;28;20500;-70
2023/05/26 08:27:10;;;;;;;11.83;9.40;;;18.00;70.60;;;;;;5010775;28;20452;-71
2023/05/26 08:29:38;;;;;;;14.17;10.50;;;18.00;71.50;;;;;;5010867;28;20821;-70
2023/05/26 08:32:06;;;;;;;21.47;10.30;;;18.00;70.30;;;;;;5009592;28;21013;-72
2023/05/26 08:34:35;;;;;;;11.20;9.43;;;18.00;70.30;;;;;;5009633;28;20482;-71
2023/05/26 08:37:03;;;;;;;17.43;10.17;;;18.10;71.50;;;;;;5010285;28;20513;-71
2023/05/26 08:39:31;;;;;;;12.20;10.03;;;18.20;70.10;;;;;;5010898;28;20438;-72
2023/05/26 08:42:05;;;;;;;14.10;9.70;;;18.40;70.20;;;;;;5010398;28;20476;-72
2023/05/26 08:44:34;;;;;;;9.10;8.10;;;18.60;70.20;;;;;;5009692;28;20468;-72
2023/05/26 08:47:04;;;;;;;13.80;9.13;;;18.70;69.20;;;;;;5009818;28;20482;-72
2023/05/26 08:49:37;;;;;;;12.33;9.43;;;18.70;68.20;;;;;;5009734;28;20537;-70
2023/05/26 08:52:09;;;;;;;13.00;9.60;;;18.80;69.10;;;;;;5010390;28;20449;-71
2023/05/26 08:54:37;;;;;;;9.40;8.07;;;18.90;68.10;;;;;;5010247;28;20485;-72
2023/05/26 08:57:06;;;;;;;10.13;8.60;;;19.10;68.10;;;;;;5010485;28;20456;-71
2023/05/26 08:59:36;;;;;;;19.37;9.10;;;19.20;66.80;;;;;;5009927;28;20444;-71
2023/05/26 09:02:05;;;;;;;11.83;9.07;;;19.10;66.60;;;;;;5010016;28;20450;-72
2023/05/26 09:04:33;;;;;;;11.30;8.33;;;19.20;66.40;;;;;;5009775;28;20437;-71
2023/05/26 09:07:02;;;;;;;9.90;8.73;;;19.30;66.30;;;;;;5010235;28;20533;-73
2023/05/26 09:09:51;;;;;;;11.73;8.83;;;19.50;65.40;;;;;;5010120;28;20786;-71
2023/05/26 09:12:19;;;;;;;11.60;9.00;;;19.60;64.70;;;;;;5010256;28;20971;-72
2023/05/26 09:14:47;;;;;;;13.40;8.77;;;19.60;64.80;;;;;;5009922;28;21416;-72
2023/05/26 09:17:15;;;;;;;10.13;9.00;;;19.50;64.90;;;;;;5010172;28;20472;-72
2023/05/26 09:19:44;;;;;;;11.83;9.50;;;19.80;65.20;;;;;;5010612;28;20552;-72
2023/05/26 09:22:14;;;;;;;12.77;9.40;;;19.90;65.20;;;;;;5010634;28;20870;-72
2023/05/26 09:24:45;;;;;;;15.43;9.40;;;19.90;63.40;;;;;;5010286;28;20537;-73
2023/05/26 09:27:20;;;;;;;12.13;9.27;;;20.10;69.30;;;;;;5010190;28;20508;-72
2023/05/26 09:29:53;;;;;;;9.20;8.20;;;20.50;63.60;;;;;;5010180;28;21003;-75
2023/05/26 09:32:25;;;;;;;11.70;8.63;;;20.50;63.30;;;;;;5010059;28;20456;-72
2023/05/26 09:34:53;;;;;;;13.30;8.93;;;20.50;63.00;;;;;;5009822;28;20543;-72
2023/05/26 09:37:29;;;;;;;11.07;9.23;;;20.60;65.40;;;;;;5009774;28;20565;-72
2023/05/26 09:40:06;;;;;;;9.47;8.57;;;20.70;62.10;;;;;;5009836;28;20479;-72
2023/05/26 09:42:36;;;;;;;11.53;9.07;;;20.80;62.90;;;;;;5010279;28;20445;-72
2023/05/26 09:45:05;;;;;;;12.73;8.33;;;20.90;61.20;;;;;;5013647;28;20446;-73
2023/05/26 09:47:35;;;;;;;10.27;8.77;;;21.10;62.50;;;;;;5013653;28;20472;-72
2023/05/26 09:50:04;;;;;;;8.93;8.00;;;21.20;59.30;;;;;;5013596;28;20457;-72
2023/05/26 09:52:34;;;;;;;10.43;8.27;;;21.20;61.10;;;;;;5013619;28;20446;-72
2023/05/26 09:55:03;;;;;;;9.60;8.60;;;21.70;59.20;;;;;;5013498;28;20959;-72
2023/05/26 09:57:33;;;;;;;10.90;9.20;;;22.30;58.80;;;;;;5013782;28;20902;-72
2023/05/26 10:00:06;;;;;;;10.73;9.17;;;22.90;57.20;;;;;;5013670;28;20442;-72
2023/05/26 10:02:34;;;;;;;12.23;9.50;;;23.10;57.60;;;;;;5013160;28;20875;-71
2023/05/26 10:05:03;;;;;;;10.23;9.30;;;23.00;56.30;;;;;;5013323;28;20448;-72
2023/05/26 10:07:31;;;;;;;9.10;8.20;;;23.00;56.60;;;;;;5013393;28;20491;-72
2023/05/26 10:10:04;;;;;;;11.37;9.80;;;23.50;57.00;;;;;;5013262;28;20454;-71
2023/05/26 10:12:34;;;;;;;12.63;8.60;;;23.50;56.10;;;;;;5012921;28;20999;-72
2023/05/26 10:15:04;;;;;;;11.40;8.80;;;23.60;55.20;;;;;;5012681;28;20498;-71
2023/05/26 10:17:32;;;;;;;12.63;8.53;;;23.70;54.50;;;;;;5013037;28;20457;-71
2023/05/26 10:20:01;;;;;;;12.33;9.03;;;23.70;53.80;;;;;;5013031;28;20437;-71
2023/05/26 10:22:34;;;;;;;10.20;8.60;;;23.40;54.40;;;;;;5011121;28;20452;-71
2023/05/26 10:25:09;;;;;;;10.90;8.40;;;23.30;54.20;;;;;;5012898;28;20441;-70
2023/05/26 10:27:42;;;;;;;9.83;8.70;;;23.50;53.20;;;;;;5011780;28;20468;-72
2023/05/26 10:30:16;;;;;;;8.73;7.93;;;23.30;55.00;;;;;;5012786;28;20457;-71
2023/05/26 10:32:46;;;;;;;11.80;8.03;;;23.60;54.10;;;;;;5013236;28;20463;-71
2023/05/26 10:35:24;;;;;;;11.33;9.13;;;23.80;54.10;;;;;;5012759;28;20520;-72
2023/05/26 10:38:09;;;;;;;11.20;9.10;;;23.90;53.70;;;;;;5012501;28;20505;-71
2023/05/26 10:40:42;;;;;;;10.00;8.37;;;23.60;53.80;;;;;;5012806;28;20861;-72
2023/05/26 10:43:18;;;;;;;9.40;8.40;;;23.90;53.90;;;;;;5012182;28;20446;-71
2023/05/26 10:45:50;;;;;;;9.83;7.53;;;24.20;52.50;;;;;;5012902;28;20444;-73
2023/05/26 10:48:19;;;;;;;10.43;8.17;;;24.40;52.80;;;;;;5012566;28;20480;-71
2023/05/26 10:51:16;;;;;;;12.70;8.20;;;24.60;51.80;;;;;;5012525;28;20445;-72
2023/05/26 10:53:46;;;;;;;8.37;7.47;;;24.10;51.80;;;;;;5012028;28;20541;-72
2023/05/26 10:56:18;;;;;;;9.40;7.83;;;24.20;51.90;;;;;;5012280;28;20446;-72
2023/05/26 10:58:48;;;;;;;10.07;7.90;;;24.80;50.80;;;;;;5012497;28;20498;-71
2023/05/26 11:01:22;;;;;;;9.77;8.60;;;24.80;50.90;;;;;;5012481;28;20833;-72
2023/05/26 11:03:57;;;;;;;11.13;7.90;;;24.50;50.30;;;;;;5012171;28;20479;-71
2023/05/26 11:06:44;;;;;;;9.77;7.70;;;24.50;51.00;;;;;;5012147;28;20441;-72
2023/05/26 11:09:12;;;;;;;10.37;7.40;;;24.60;50.80;;;;;;5012415;28;20847;-72
2023/05/26 11:11:53;;;;;;;8.70;7.80;;;24.80;51.70;;;;;;5012401;28;20477;-72
2023/05/26 11:14:28;;;;;;;8.23;7.43;;;24.80;51.20;;;;;;5012016;28;20481;-71
2023/05/26 11:16:57;;;;;;;13.40;8.00;;;24.50;50.80;;;;;;5012061;28;20492;-72
2023/05/26 11:19:31;;;;;;;8.57;7.73;;;24.60;53.70;;;;;;5012292;28;20889;-71
2023/05/26 11:22:00;;;;;;;10.83;8.10;;;25.20;50.30;;;;;;5011643;28;20442;-71
2023/05/26 11:24:28;;;;;;;12.50;7.60;;;25.20;49.40;;;;;;5011544;28;20442;-68
2023/05/26 11:27:00;;;;;;;12.97;9.00;;;25.30;49.60;;;;;;5011720;28;20449;-68
2023/05/26 11:29:28;;;;;;;10.50;7.80;;;25.00;49.30;;;;;;5011810;28;20445;-68
2023/05/26 11:31:56;;;;;;;11.13;8.30;;;25.20;50.40;;;;;;5011460;28;20492;-68
2023/05/26 11:34:24;;;;;;;8.17;7.03;;;25.70;49.50;;;;;;5011266;28;20481;-67
2023/05/26 11:36:54;;;;;;;7.87;7.17;;;25.80;48.50;;;;;;5011472;28;20477;-70
2023/05/26 11:39:23;;;;;;;7.23;6.50;;;25.70;48.20;;;;;;5009414;28;20478;-70
2023/05/26 11:41:51;;;;;;;9.20;8.30;;;25.30;49.70;;;;;;5011116;28;20456;-70
2023/05/26 11:44:20;;;;;;;7.90;7.20;;;25.40;49.40;;;;;;5010961;28;21014;-70
2023/05/26 11:46:48;;;;;;;9.33;7.80;;;25.80;48.60;;;;;;5011137;28;20445;-70
2023/05/26 11:49:17;;;;;;;8.90;7.80;;;26.10;48.30;;;;;;5011277;28;20473;-70
2023/05/26 11:51:46;;;;;;;10.20;7.13;;;26.20;48.10;;;;;;5011514;28;20458;-70
2023/05/26 11:54:14;;;;;;;7.57;6.80;;;26.10;47.20;;;;;;5010941;28;20536;-70
2023/05/26 11:56:45;;;;;;;9.93;8.03;;;25.90;47.30;;;;;;5011329;28;20453;-69
2023/05/26 11:59:17;;;;;;;9.43;7.40;;;25.90;48.50;;;;;;5011264;28;21005;-67
2023/05/26 12:01:47;;;;;;;8.23;7.43;;;26.00;47.60;;;;;;5012548;28;20524;-71
2023/05/26 12:04:15;;;;;;;8.03;7.23;;;25.80;47.50;;;;;;5009277;28;20434;-70
2023/05/26 12:06:44;;;;;;;8.00;7.00;;;25.90;47.00;;;;;;5001656;28;20485;-70
2023/05/26 12:09:20;;;;;;;10.73;7.93;;;26.10;47.20;;;;;;5000522;28;20462;-70
2023/05/26 12:11:51;;;;;;;8.10;7.30;;;26.10;46.70;;;;;;4994634;28;20442;-70
2023/05/26 12:14:22;;;;;;;10.90;8.07;;;26.00;47.60;;;;;;4999662;28;20478;-70
2023/05/26 12:16:55;;;;;;;9.33;7.90;;;25.50;47.80;;;;;;4996777;28;20438;-70
2023/05/26 12:19:23;;;;;;;12.10;7.57;;;25.20;48.20;;;;;;5000133;28;20454;-71
2023/05/26 12:21:56;;;;;;;7.27;6.53;;;25.00;47.80;;;;;;5001661;28;20434;-69
2023/05/26 12:24:32;;;;;;;7.43;6.43;;;25.30;48.40;;;;;;4998505;28;21232;-69
2023/05/26 12:27:06;;;;;;;8.70;7.10;;;25.80;46.80;;;;;;4991121;28;20457;-69
2023/05/26 12:29:36;;;;;;;7.93;7.23;;;25.90;46.50;;;;;;4991131;28;20501;-69
2023/05/26 12:32:07;;;;;;;9.63;7.03;;;26.10;45.90;;;;;;4991037;28;20442;-70
2023/05/26 12:34:38;;;;;;;9.90;7.57;;;25.90;46.50;;;;;;4990772;28;20533;-70
2023/05/26 12:37:06;;;;;;;7.83;6.27;;;25.90;46.30;;;;;;4991027;28;20465;-70
2023/05/26 12:39:34;;;;;;;6.90;6.20;;;26.20;46.30;;;;;;4991067;28;20448;-70
2023/05/26 12:42:02;;;;;;;7.90;6.63;;;26.30;46.40;;;;;;4991513;28;20443;-68
2023/05/26 12:44:30;;;;;;;7.43;6.40;;;26.50;44.30;;;;;;4997978;28;20477;-68
2023/05/26 12:46:59;;;;;;;9.20;8.30;;;26.40;45.30;;;;;;5002703;28;20480;-69
2023/05/26 12:49:31;;;;;;;8.73;7.10;;;26.80;44.70;;;;;;4999662;28;20493;-67
2023/05/26 12:52:02;;;;;;;8.07;7.03;;;26.90;44.60;;;;;;5010428;28;20446;-70
2023/05/26 12:54:30;;;;;;;7.93;7.10;;;27.50;42.80;;;;;;5009952;28;20446;-70